Kamikawa Maru — JG5687 — position and weather

sailwx.info

Track history (hours):
 
Tides and Currents Weather Stations Pressure Air Temp Water Temp Dewpoint Dewpoint Depression Visibility Wind Speed Wind Dir Waves Ship Positions

Kamikawa Maru

Last reported at 2016-May-03 14:15 UTC. Time now 2016-May-06 03:35 UTC.
Position N 35°25' E 140°45'.

Length 162 m; draft 6.8 m.

Type: Cargo ship. MMSI: 431101012.

Date/timePositionNaut miles runAvg speedWind from/ knotsBaromVisibWave heightAir tempDewpointWater temp
2016-May-03 14:15N 35°25' E 140°45'1521.2
2016-May-03 13:33N 35°12' E 140°36'2120.2
2016-May-03 12:30N 35°00' E 140°15'2220.1
2016-May-03 11:23N 34°52' E 139°49'1417.3
2016-May-03 10:34N 35°06' E 139°45'1414.1
2016-May-03 09:33N 35°20' E 139°42'1514.6
2016-May-03 08:33N 35°33' E 139°50'6 6.0
2016-May-03 07:32N 35°38' E 139°46'0 0.0
2016-May-03 06:26N 35°38' E 139°46'0 0.0
2016-May-03 05:32N 35°38' E 139°46'0 0.0
2016-May-03 04:29N 35°38' E 139°46'0 0.0
2016-May-03 03:29N 35°38' E 139°46'0 0.0
2016-May-03 02:29N 35°38' E 139°46'0 0.0
2016-May-03 01:32N 35°38' E 139°46'0 0.0
2016-May-03 00:20N 35°38' E 139°46'0 0.0
2016-May-02 23:33N 35°38' E 139°46'1110.7
2016-May-02 22:34N 35°28' E 139°51'1212.2
2016-May-02 21:33N 35°17' E 139°46'1414.4
2016-May-02 20:33N 35°03' E 139°41'69 2.0
2016-May-01 10:11N 34°31' E 138°27'4516.2
2016-May-01 07:23N 34°49' E 139°18'1517.6
2016-May-01 06:34N 34°58' E 139°31'1817.7
2016-May-01 05:33N 35°11' E 139°46'1313.2
2016-May-01 04:33N 35°24' E 139°43'1313.4
2016-May-01 03:34N 35°38' E 139°46'0 0.3
2016-May-01 02:28N 35°38' E 139°46'0 0.0
2016-May-01 01:28N 35°38' E 139°46'0 0.0
2016-May-01 00:31N 35°38' E 139°46'0 0.0
2016-Apr-30 23:33N 35°38' E 139°46'1111.0
2016-Apr-30 22:34N 35°28' E 139°51'1212.0
2016-Apr-30 21:33N 35°16' E 139°46'1514.8
2016-Apr-30 20:34N 35°02' E 139°44'1413.6
2016-Apr-30 19:32N 34°53' E 139°57'1818.0
2016-Apr-30 18:32N 35°01' E 140°17'1817.0
2016-Apr-30 17:30N 35°11' E 140°34'2017.5
2016-Apr-30 16:22N 35°28' E 140°47'1618.0
2016-Apr-30 15:28N 35°42' E 140°57'5817.5
2016-Apr-30 12:08N 36°40' E 141°09'  
2016-Apr-26 18:23N 36°36' E 141°07'1619.2
2016-Apr-26 17:33N 36°20' E 141°04'2019.2
2016-Apr-26 16:30N 36°00' E 141°00'2019.5
2016-Apr-26 15:29N 35°40' E 140°57'1919.5
2016-Apr-26 14:32N 35°25' E 140°45'2121.6
2016-Apr-26 13:33N 35°08' E 140°29'2120.7
2016-Apr-26 12:33N 34°57' E 140°08'1917.6
2016-Apr-26 11:29N 34°56' E 139°45'1617.6
2016-Apr-26 10:33N 35°12' E 139°46'1312.9
2016-Apr-26 09:33N 35°24' E 139°43'1211.7
2016-Apr-26 08:33N 35°36' E 139°47'3 2.3
2016-Apr-26 07:29N 35°38' E 139°46'0 0.0
2016-Apr-26 06:29N 35°38' E 139°46'0 0.1
2016-Apr-26 05:32N 35°38' E 139°46'0 0.0
2016-Apr-26 04:29N 35°38' E 139°46'0 0.0
2016-Apr-26 03:32N 35°38' E 139°46'0 0.0
2016-Apr-26 02:32N 35°38' E 139°46'0 0.0
2016-Apr-26 01:32N 35°38' E 139°46'0 0.0
2016-Apr-26 00:29N 35°38' E 139°46'0 0.0
2016-Apr-25 23:34N 35°38' E 139°46'1111.2
2016-Apr-25 22:33N 35°27' E 139°51'1212.1
2016-Apr-25 21:34N 35°16' E 139°46'1615.7
2016-Apr-25 20:34N 35°01' E 139°39'2119.7
2016-Apr-25 19:30N 34°48' E 139°20'4119.8
2016-Apr-25 17:26N 34°30' E 138°35'7 0.2
2016-Apr-24 11:24N 34°32' E 138°26'5218.4
2016-Apr-24 08:33N 34°54' E 139°24'2019.9
2016-Apr-24 07:33N 35°07' E 139°42'1313.4
2016-Apr-24 06:33N 35°20' E 139°42'1515.1
2016-Apr-24 05:33N 35°35' E 139°48'4 3.9
2016-Apr-24 04:32N 35°38' E 139°46'0 0.0
2016-Apr-24 03:29N 35°38' E 139°46'0 0.0
2016-Apr-24 02:29N 35°38' E 139°46'0 0.0
2016-Apr-24 01:29N 35°38' E 139°46'0 0.0
2016-Apr-24 00:32N 35°38' E 139°46'0 0.0
2016-Apr-23 23:33N 35°38' E 139°46'1211.7
2016-Apr-23 22:34N 35°27' E 139°49'1211.6
2016-Apr-23 21:34N 35°15' E 139°47'1616.0
2016-Apr-23 20:33N 34°60' E 139°41'1514.7
2016-Apr-23 19:34N 34°52' E 139°57'1717.2
2016-Apr-23 18:33N 35°01' E 140°15'1717.0
2016-Apr-23 17:31N 35°10' E 140°33'1717.4
2016-Apr-23 16:33N 35°24' E 140°44'1818.2
2016-Apr-23 15:33N 35°40' E 140°56'1919.0
2016-Apr-23 14:33N 35°59' E 140°59'  
Track history (hours):
 
Tides and Currents Weather Stations Pressure Air Temp Water Temp Dewpoint Dewpoint Depression Visibility Wind Speed Wind Dir Waves Ship Positions

Kamikawa Maru

Last reported at 2016-May-03 14:15 UTC. Time now 2016-May-06 03:35 UTC.
Position N 35°25' E 140°45'.

Length 162 m; draft 6.8 m.

Type: Cargo ship. MMSI: 431101012.

Date/timePositionNaut miles runAvg speedWind from/ knotsBaromVisibWave heightAir tempDewpointWater temp
2016-May-03 14:15N 35°25' E 140°45'1521.2
2016-May-03 13:33N 35°12' E 140°36'2120.2
2016-May-03 12:30N 35°00' E 140°15'2220.1
2016-May-03 11:23N 34°52' E 139°49'1417.3
2016-May-03 10:34N 35°06' E 139°45'1414.1
2016-May-03 09:33N 35°20' E 139°42'1514.6
2016-May-03 08:33N 35°33' E 139°50'6 6.0
2016-May-03 07:32N 35°38' E 139°46'0 0.0
2016-May-03 06:26N 35°38' E 139°46'0 0.0
2016-May-03 05:32N 35°38' E 139°46'0 0.0
2016-May-03 04:29N 35°38' E 139°46'0 0.0
2016-May-03 03:29N 35°38' E 139°46'0 0.0
2016-May-03 02:29N 35°38' E 139°46'0 0.0
2016-May-03 01:32N 35°38' E 139°46'0 0.0
2016-May-03 00:20N 35°38' E 139°46'0 0.0
2016-May-02 23:33N 35°38' E 139°46'1110.7
2016-May-02 22:34N 35°28' E 139°51'1212.2
2016-May-02 21:33N 35°17' E 139°46'1414.4
2016-May-02 20:33N 35°03' E 139°41'69 2.0
2016-May-01 10:11N 34°31' E 138°27'4516.2
2016-May-01 07:23N 34°49' E 139°18'1517.6
2016-May-01 06:34N 34°58' E 139°31'1817.7
2016-May-01 05:33N 35°11' E 139°46'1313.2
2016-May-01 04:33N 35°24' E 139°43'1313.4
2016-May-01 03:34N 35°38' E 139°46'0 0.3
2016-May-01 02:28N 35°38' E 139°46'0 0.0
2016-May-01 01:28N 35°38' E 139°46'0 0.0
2016-May-01 00:31N 35°38' E 139°46'0 0.0
2016-Apr-30 23:33N 35°38' E 139°46'1111.0
2016-Apr-30 22:34N 35°28' E 139°51'1212.0
2016-Apr-30 21:33N 35°16' E 139°46'1514.8
2016-Apr-30 20:34N 35°02' E 139°44'1413.6
2016-Apr-30 19:32N 34°53' E 139°57'1818.0
2016-Apr-30 18:32N 35°01' E 140°17'1817.0
2016-Apr-30 17:30N 35°11' E 140°34'2017.5
2016-Apr-30 16:22N 35°28' E 140°47'1618.0
2016-Apr-30 15:28N 35°42' E 140°57'5817.5
2016-Apr-30 12:08N 36°40' E 141°09'  
2016-Apr-26 18:23N 36°36' E 141°07'1619.2
2016-Apr-26 17:33N 36°20' E 141°04'2019.2
2016-Apr-26 16:30N 36°00' E 141°00'2019.5
2016-Apr-26 15:29N 35°40' E 140°57'1919.5
2016-Apr-26 14:32N 35°25' E 140°45'2121.6
2016-Apr-26 13:33N 35°08' E 140°29'2120.7
2016-Apr-26 12:33N 34°57' E 140°08'1917.6
2016-Apr-26 11:29N 34°56' E 139°45'1617.6
2016-Apr-26 10:33N 35°12' E 139°46'1312.9
2016-Apr-26 09:33N 35°24' E 139°43'1211.7
2016-Apr-26 08:33N 35°36' E 139°47'3 2.3
2016-Apr-26 07:29N 35°38' E 139°46'0 0.0
2016-Apr-26 06:29N 35°38' E 139°46'0 0.1
2016-Apr-26 05:32N 35°38' E 139°46'0 0.0
2016-Apr-26 04:29N 35°38' E 139°46'0 0.0
2016-Apr-26 03:32N 35°38' E 139°46'0 0.0
2016-Apr-26 02:32N 35°38' E 139°46'0 0.0
2016-Apr-26 01:32N 35°38' E 139°46'0 0.0
2016-Apr-26 00:29N 35°38' E 139°46'0 0.0
2016-Apr-25 23:34N 35°38' E 139°46'1111.2
2016-Apr-25 22:33N 35°27' E 139°51'1212.1
2016-Apr-25 21:34N 35°16' E 139°46'1615.7
2016-Apr-25 20:34N 35°01' E 139°39'2119.7
2016-Apr-25 19:30N 34°48' E 139°20'4119.8
2016-Apr-25 17:26N 34°30' E 138°35'7 0.2
2016-Apr-24 11:24N 34°32' E 138°26'5218.4
2016-Apr-24 08:33N 34°54' E 139°24'2019.9
2016-Apr-24 07:33N 35°07' E 139°42'1313.4
2016-Apr-24 06:33N 35°20' E 139°42'1515.1
2016-Apr-24 05:33N 35°35' E 139°48'4 3.9
2016-Apr-24 04:32N 35°38' E 139°46'0 0.0
2016-Apr-24 03:29N 35°38' E 139°46'0 0.0
2016-Apr-24 02:29N 35°38' E 139°46'0 0.0
2016-Apr-24 01:29N 35°38' E 139°46'0 0.0
2016-Apr-24 00:32N 35°38' E 139°46'0 0.0
2016-Apr-23 23:33N 35°38' E 139°46'1211.7
2016-Apr-23 22:34N 35°27' E 139°49'1211.6
2016-Apr-23 21:34N 35°15' E 139°47'1616.0
2016-Apr-23 20:33N 34°60' E 139°41'1514.7
2016-Apr-23 19:34N 34°52' E 139°57'1717.2
2016-Apr-23 18:33N 35°01' E 140°15'1717.0
2016-Apr-23 17:31N 35°10' E 140°33'1717.4
2016-Apr-23 16:33N 35°24' E 140°44'1818.2
2016-Apr-23 15:33N 35°40' E 140°56'1919.0
2016-Apr-23 14:33N 35°59' E 140°59'  

Dump ship's entire track history